LTCELTCD

Guest
Details From LTCE - ERZURUM
To LTCD - ERZINCAN
Flight Number -
Tags generated
Created
Modified
Stats Distance 77 nm / 143 km
Max Altitude 0 ft / 0 m
Waypoints 3
Social Downloads 0
Likes 0
Share VATSIM

Download

Looking for another format? Having issues loading an existing format? Contact us
Advertisement - Login to hide

Notes

Basic altitude profile: - Ascent Rate: 2500ft/min - Ascent Speed: 250kts - Cruise Altitude: 35000ft - Cruise Speed: 420kts - Descent Rate: 1500ft/min - Descent Speed: 250kts Options: - Use NATs: yes - Use PACOTS: yes - Use low airways: yes - Use high airways: yes

Route

LTCE ERN LTCD

ID Type Via Altitude Latitude Longitude Leg Dist Tot Dist Heading (true) Name
O LTCE APT - 0 ft / 0 m 39.95223˚ 41.17010˚ - 0 nm - ERZURUM
ERN NDB - 0 ft / 0 m 39.70833˚ 39.52917˚ 77 nm 77 nm 260° / 259° ERZINCAN NDB
O LTCD APT - 0 ft / 0 m 39.71070˚ 39.52114˚ 0 nm 77 nm 291° / 291° ERZINCAN

Altitude Profile

Advertisement - Login to hide

LTCE

Details ICAO LTCE (ERZ)
Name ERZURUM
Region Turkey
Timezone Europe/Istanbul (UTC+3.0)
Stats Elevation 5,763 ft / 1,757 m (AMSL)
Location 39.952230° 41.170103°
Runways 3
Magnetic Variation 6.109° E

METAR

LTCE 120950Z VRB01KT 3200 BR FEW002 M06/M07 Q1029 BECMG TL1100 7000

Decode

TAF

Not found

Departure Runways

ID Width Length Bearing (true) Bearing (mag) Surface Threshold Offset Overrun Length
05 49 ft / 15 m 3,025 ft / 922 m 48.18° 42.07° Asphalt 0 ft / 0 m 0 ft / 0 m
08L 148 ft / 45 m 12,471 ft / 3,801 m 88.04° 81.93° Concrete 0 ft / 0 m 534 ft / 163 m
08R 98 ft / 30 m 12,454 ft / 3,796 m 88.12° 82.01° Concrete 0 ft / 0 m 490 ft / 149 m
23 49 ft / 15 m 3,025 ft / 922 m 228.18° 222.07° Asphalt 0 ft / 0 m 0 ft / 0 m
26L 98 ft / 30 m 12,454 ft / 3,796 m 268.15° 262.04° Concrete 0 ft / 0 m 490 ft / 149 m
26R 148 ft / 45 m 12,471 ft / 3,801 m 268.07° 261.96° Concrete 0 ft / 0 m 472 ft / 144 m

LTCD

Details ICAO LTCD (ERC)
Name ERZINCAN
Region Turkey
Timezone Europe/Istanbul (UTC+3.0)
Stats Elevation 3,783 ft / 1,153 m (AMSL)
Location 39.710705° 39.521140°
Runways 2
Magnetic Variation 6.010° E

METAR

LTCD 120950Z 17003KT 100V260 CAVOK 05/M04 Q1029 NOSIG

Decode

TAF

Not found

Destination Runways

ID Width Length Bearing (true) Bearing (mag) Surface Threshold Offset Overrun Length
11 148 ft / 45 m 9,825 ft / 2,995 m 110.83° 104.82° Concrete 0 ft / 0 m 197 ft / 60 m
13 137 ft / 42 m 5,890 ft / 1,795 m 127.15° 121.14° Concrete 0 ft / 0 m 0 ft / 0 m
29 148 ft / 45 m 9,825 ft / 2,995 m 290.86° 284.85° Concrete 0 ft / 0 m 197 ft / 60 m
31 137 ft / 42 m 5,890 ft / 1,795 m 307.16° 301.15° Concrete 0 ft / 0 m 0 ft / 0 m